Time;durP1;ratioP1;P1;durP2;ratioP2;P2;SDS_P1;SDS_P2;PMS_P1;PMS_P2;Temp;Humidity;BMP_temperature;BMP_pressure;BME280_temperature;BME280_humidity;BME280_pressure;Samples;Min_cycle;Max_cycle;Signal;HPM_P1;HPM_P2
2021/04/07 00:00:52;;;;;;;12.77;2.97;;;1.10;84.90;;;;;;5029747;28;20021;-77
2021/04/07 00:03:17;;;;;;;9.82;2.05;;;1.00;84.70;;;;;;5031218;28;20069;-76
2021/04/07 00:05:44;;;;;;;8.35;1.98;;;1.00;84.50;;;;;;5035943;28;20057;-74
2021/04/07 00:08:10;;;;;;;6.82;1.80;;;1.00;84.50;;;;;;5030567;28;20029;-78
2021/04/07 00:10:38;;;;;;;7.25;1.90;;;1.00;84.70;;;;;;5030943;28;20036;-73
2021/04/07 00:13:05;;;;;;;7.78;1.65;;;1.00;85.30;;;;;;5030610;28;20029;-75
2021/04/07 00:15:31;;;;;;;9.40;2.05;;;1.00;85.30;;;;;;5027044;28;20045;-81
2021/04/07 00:17:57;;;;;;;8.20;1.75;;;0.90;85.50;;;;;;5026374;28;20038;-74
2021/04/07 00:20:24;;;;;;;6.68;1.77;;;0.90;85.60;;;;;;5028747;28;20034;-74
2021/04/07 00:22:51;;;;;;;6.82;1.80;;;0.90;85.70;;;;;;5027743;28;20076;-74
2021/04/07 00:25:18;;;;;;;6.30;1.95;;;0.90;85.90;;;;;;5027430;28;20506;-75
2021/04/07 00:27:52;;;;;;;6.57;1.55;;;0.90;86.00;;;;;;5027673;28;20045;-73
2021/04/07 00:30:19;;;;;;;6.70;1.52;;;0.90;85.90;;;;;;5035730;28;20723;-74
2021/04/07 00:32:45;;;;;;;6.45;1.80;;;0.90;85.90;;;;;;5035877;28;20033;-75
2021/04/07 00:35:11;;;;;;;6.15;1.75;;;0.90;85.60;;;;;;5029854;28;20396;-73
2021/04/07 00:37:37;;;;;;;6.50;2.08;;;0.90;85.90;;;;;;5029237;28;20063;-72
2021/04/07 00:40:04;;;;;;;8.02;1.90;;;0.90;86.10;;;;;;5026285;28;20033;-73
2021/04/07 00:42:35;;;;;;;7.85;1.98;;;0.90;86.60;;;;;;5033888;28;20075;-73
2021/04/07 00:45:01;;;;;;;8.48;2.53;;;0.90;87.20;;;;;;5033087;28;20384;-75
2021/04/07 00:47:27;;;;;;;9.57;2.83;;;0.90;87.70;;;;;;5029619;28;20037;-74
2021/04/07 00:49:52;;;;;;;12.13;2.75;;;0.90;88.10;;;;;;5030494;28;20026;-73
2021/04/07 00:52:18;;;;;;;6.72;2.00;;;0.90;88.30;;;;;;5036858;28;20064;-73
2021/04/07 00:54:44;;;;;;;10.85;2.08;;;0.90;88.30;;;;;;5042415;28;20040;-75
2021/04/07 00:57:11;;;;;;;10.30;2.30;;;0.90;88.30;;;;;;5023909;28;20499;-81
2021/04/07 00:59:36;;;;;;;9.45;1.98;;;0.90;88.30;;;;;;5016375;28;20034;-73
2021/04/07 01:02:02;;;;;;;14.75;2.75;;;0.90;88.20;;;;;;5009350;28;20053;-74
2021/04/07 01:04:29;;;;;;;9.75;2.25;;;0.90;88.20;;;;;;5016346;28;20437;-74
2021/04/07 01:06:56;;;;;;;7.95;1.65;;;0.90;88.10;;;;;;5019712;28;20120;-73
2021/04/07 01:09:22;;;;;;;9.25;1.92;;;0.90;88.00;;;;;;5018357;28;20042;-74
2021/04/07 01:11:47;;;;;;;9.20;2.30;;;0.90;87.90;;;;;;5013949;28;20029;-75
2021/04/07 01:14:13;;;;;;;9.57;2.85;;;0.90;87.90;;;;;;5025485;28;20030;-79
2021/04/07 01:16:39;;;;;;;9.63;2.20;;;0.80;87.80;;;;;;5029027;28;20480;-73
2021/04/07 01:19:09;;;;;;;13.93;2.47;;;0.80;87.80;;;;;;5021843;28;20026;-74
2021/04/07 01:21:38;;;;;;;7.97;2.22;;;0.80;87.90;;;;;;5018951;28;20480;-74
2021/04/07 01:24:07;;;;;;;7.45;2.30;;;0.80;87.90;;;;;;5028946;28;20029;-73
2021/04/07 01:26:32;;;;;;;9.88;2.13;;;0.80;87.90;;;;;;5027476;28;20030;-73
2021/04/07 01:28:58;;;;;;;10.20;2.83;;;0.70;87.80;;;;;;5030074;28;20037;-74
2021/04/07 01:31:24;;;;;;;9.00;2.15;;;0.70;87.80;;;;;;5025736;28;20044;-73
2021/04/07 01:33:49;;;;;;;7.32;1.98;;;0.70;87.40;;;;;;5022310;28;20030;-80
2021/04/07 01:36:15;;;;;;;11.50;3.67;;;0.70;87.30;;;;;;5030263;28;20068;-74
2021/04/07 01:38:41;;;;;;;15.70;2.78;;;0.70;87.10;;;;;;5030475;28;20026;-75
2021/04/07 01:41:06;;;;;;;8.50;2.72;;;0.60;87.00;;;;;;5033435;28;20057;-74
2021/04/07 01:43:33;;;;;;;9.77;2.90;;;0.70;87.10;;;;;;5023559;28;20034;-75
2021/04/07 01:46:01;;;;;;;11.48;3.30;;;0.60;86.80;;;;;;5035941;28;20052;-74
2021/04/07 01:48:29;;;;;;;10.13;2.78;;;0.60;86.60;;;;;;5025279;28;20182;-73
2021/04/07 01:50:55;;;;;;;12.63;3.20;;;0.80;86.40;;;;;;5044744;28;20032;-74
2021/04/07 01:53:21;;;;;;;9.10;3.03;;;0.70;86.20;;;;;;5014044;28;20037;-74
2021/04/07 01:55:47;;;;;;;10.85;3.20;;;0.80;86.00;;;;;;5028054;28;20065;-75
2021/04/07 01:58:13;;;;;;;12.45;3.22;;;0.90;85.80;;;;;;5015337;28;20042;-74
2021/04/07 02:00:39;;;;;;;17.35;4.78;;;0.90;85.70;;;;;;5020398;28;20035;-77
2021/04/07 02:03:05;;;;;;;13.18;4.63;;;0.90;85.70;;;;;;5036969;28;20036;-73
2021/04/07 02:05:32;;;;;;;17.10;5.35;;;0.90;85.30;;;;;;5039223;28;20041;-74
2021/04/07 02:07:58;;;;;;;15.75;5.50;;;0.90;85.30;;;;;;5044606;28;20029;-73
2021/04/07 02:10:24;;;;;;;16.77;5.85;;;0.90;85.00;;;;;;5027749;28;20034;-74
2021/04/07 02:12:52;;;;;;;16.00;6.50;;;0.90;84.90;;;;;;5040850;28;20021;-74
2021/04/07 02:15:17;;;;;;;13.88;5.60;;;0.80;84.80;;;;;;5034975;28;20061;-79
2021/04/07 02:17:45;;;;;;;13.75;6.00;;;0.80;84.70;;;;;;5028960;28;20061;-74
2021/04/07 02:20:12;;;;;;;16.05;5.95;;;0.80;84.90;;;;;;5026761;28;20476;-74
2021/04/07 02:22:38;;;;;;;15.95;5.50;;;0.80;84.50;;;;;;5027672;28;20050;-73
2021/04/07 02:25:09;;;;;;;18.95;6.45;;;0.80;84.50;;;;;;5024877;28;20071;-81
2021/04/07 02:27:35;;;;;;;16.63;6.03;;;0.80;84.40;;;;;;5025640;28;20132;-74
2021/04/07 02:30:04;;;;;;;19.50;8.32;;;0.70;84.30;;;;;;5025021;28;20038;-76
2021/04/07 02:32:30;;;;;;;22.13;9.13;;;0.80;84.20;;;;;;5022221;28;20025;-75
2021/04/07 02:34:56;;;;;;;19.73;10.98;;;0.70;84.30;;;;;;5026023;28;20534;-81
2021/04/07 02:37:21;;;;;;;20.95;11.35;;;0.70;84.10;;;;;;5035070;28;20380;-74
2021/04/07 02:39:48;;;;;;;23.10;11.98;;;0.70;84.00;;;;;;5034201;28;20033;-73
2021/04/07 02:42:15;;;;;;;26.42;13.45;;;0.80;84.00;;;;;;5010560;28;20049;-74
2021/04/07 02:44:41;;;;;;;19.13;11.60;;;0.70;83.70;;;;;;5021310;28;20455;-75
2021/04/07 02:47:08;;;;;;;23.95;11.02;;;0.70;83.60;;;;;;5031214;28;20029;-73
2021/04/07 02:49:34;;;;;;;22.23;8.73;;;0.80;83.70;;;;;;5028772;28;20033;-73
2021/04/07 02:52:00;;;;;;;18.05;6.93;;;0.80;83.60;;;;;;5031996;28;20220;-73
2021/04/07 02:54:25;;;;;;;15.55;6.38;;;0.80;83.30;;;;;;5028724;28;20535;-73
2021/04/07 02:56:51;;;;;;;18.63;5.20;;;0.80;83.10;;;;;;5031428;28;20374;-74
2021/04/07 02:59:17;;;;;;;13.90;3.80;;;0.80;82.80;;;;;;5037294;28;20041;-74
2021/04/07 03:01:42;;;;;;;13.13;3.70;;;0.80;82.60;;;;;;5015602;28;20037;-75
2021/04/07 03:04:08;;;;;;;9.90;3.35;;;0.90;82.30;;;;;;5027399;28;20529;-74
2021/04/07 03:06:34;;;;;;;19.55;4.13;;;0.90;82.00;;;;;;5030539;28;20087;-73
2021/04/07 03:09:00;;;;;;;13.02;3.50;;;1.00;81.70;;;;;;5032380;28;20029;-73
2021/04/07 03:11:26;;;;;;;18.42;3.38;;;1.10;81.50;;;;;;5026734;28;20042;-73
2021/04/07 03:13:52;;;;;;;13.50;3.40;;;1.10;81.50;;;;;;5032931;28;20033;-73
2021/04/07 03:16:18;;;;;;;9.18;3.17;;;1.10;81.20;;;;;;5031013;28;20096;-77
2021/04/07 03:18:43;;;;;;;12.48;3.47;;;1.10;81.00;;;;;;5039825;28;20037;-73
2021/04/07 03:21:09;;;;;;;15.38;3.65;;;1.10;81.00;;;;;;5031082;28;20029;-73
2021/04/07 03:23:34;;;;;;;13.88;3.20;;;1.10;81.00;;;;;;5040791;28;20029;-73
2021/04/07 03:26:00;;;;;;;16.55;3.58;;;1.10;81.10;;;;;;5025728;28;20125;-73
2021/04/07 03:28:26;;;;;;;13.60;2.75;;;1.10;81.00;;;;;;5026159;28;20036;-76
2021/04/07 03:30:51;;;;;;;13.57;4.30;;;1.10;80.80;;;;;;5036705;28;20033;-74
2021/04/07 03:33:21;;;;;;;13.70;2.95;;;1.10;80.70;;;;;;5032888;28;20030;-73
2021/04/07 03:35:48;;;;;;;13.52;3.05;;;1.10;80.80;;;;;;5028074;28;20491;-78
2021/04/07 03:38:14;;;;;;;11.40;2.78;;;1.10;80.70;;;;;;5033252;28;20037;-74
2021/04/07 03:40:40;;;;;;;16.20;3.20;;;1.10;80.80;;;;;;5034801;28;20025;-73
2021/04/07 03:43:07;;;;;;;14.15;3.15;;;1.10;80.30;;;;;;5039269;28;20067;-74
2021/04/07 03:45:33;;;;;;;16.02;3.70;;;1.10;80.40;;;;;;5034847;28;20053;-73
2021/04/07 03:47:59;;;;;;;13.45;3.15;;;1.10;80.50;;;;;;5030719;28;20103;-73
2021/04/07 03:50:24;;;;;;;13.82;3.10;;;1.10;80.50;;;;;;5031370;28;20116;-73
2021/04/07 03:52:50;;;;;;;14.05;2.58;;;1.10;80.40;;;;;;5040841;28;20038;-79
2021/04/07 03:55:16;;;;;;;15.13;3.30;;;1.10;80.10;;;;;;5030046;28;20033;-73
2021/04/07 03:57:42;;;;;;;12.98;3.33;;;1.10;79.90;;;;;;5035098;28;20021;-74
2021/04/07 04:00:08;;;;;;;12.32;2.95;;;1.10;79.70;;;;;;5028738;28;20397;-73
2021/04/07 04:02:34;;;;;;;10.35;3.08;;;1.10;79.70;;;;;;5031006;28;20463;-73
2021/04/07 04:04:59;;;;;;;12.73;2.75;;;1.10;79.70;;;;;;5032384;28;20037;-76
2021/04/07 04:07:25;;;;;;;12.13;2.92;;;1.20;79.40;;;;;;5033645;28;20041;-74
2021/04/07 04:09:51;;;;;;;17.42;3.20;;;1.20;79.10;;;;;;5031955;28;20480;-76
2021/04/07 04:12:16;;;;;;;17.33;3.35;;;1.30;78.90;;;;;;5045776;28;20037;-81
2021/04/07 04:14:42;;;;;;;13.57;2.88;;;1.30;78.80;;;;;;5035825;28;20399;-73
2021/04/07 04:17:07;;;;;;;17.35;3.30;;;1.30;78.80;;;;;;5035692;28;20152;-72
2021/04/07 04:19:33;;;;;;;11.65;3.00;;;1.30;78.80;;;;;;5039187;28;20037;-76
2021/04/07 04:22:01;;;;;;;13.93;3.28;;;1.30;78.80;;;;;;5037282;28;20041;-73
2021/04/07 04:24:27;;;;;;;10.88;2.78;;;1.30;78.70;;;;;;5039598;28;20028;-73
2021/04/07 04:26:53;;;;;;;17.75;3.17;;;1.30;78.60;;;;;;5022057;28;20029;-74
2021/04/07 04:29:19;;;;;;;11.63;3.08;;;1.30;78.40;;;;;;5039555;28;20033;-76
2021/04/07 04:31:44;;;;;;;9.85;2.65;;;1.30;78.20;;;;;;5034235;28;20461;-72
2021/04/07 04:34:10;;;;;;;18.95;3.63;;;1.40;78.00;;;;;;5010727;28;20045;-74
2021/04/07 04:36:36;;;;;;;9.77;2.78;;;1.40;78.10;;;;;;5010742;28;20045;-73
2021/04/07 04:39:02;;;;;;;16.80;3.17;;;1.40;77.80;;;;;;5027631;28;20490;-74
2021/04/07 04:41:28;;;;;;;12.10;2.70;;;1.50;77.30;;;;;;5033356;28;20380;-74
2021/04/07 04:43:53;;;;;;;12.07;3.25;;;1.50;77.20;;;;;;5026684;28;20040;-77
2021/04/07 04:46:19;;;;;;;14.38;3.75;;;1.50;77.10;;;;;;5026999;28;20041;-73
2021/04/07 04:48:45;;;;;;;11.57;3.05;;;1.50;76.90;;;;;;5033552;28;20454;-75
2021/04/07 04:51:10;;;;;;;13.88;2.67;;;1.60;77.00;;;;;;5030565;28;20029;-80
2021/04/07 04:53:36;;;;;;;13.23;3.00;;;1.60;76.50;;;;;;5034511;28;20498;-73
2021/04/07 04:56:02;;;;;;;11.52;2.85;;;1.60;76.80;;;;;;5030629;28;20427;-74
2021/04/07 04:58:28;;;;;;;9.13;2.90;;;1.60;76.80;;;;;;5030247;28;20111;-74
2021/04/07 05:00:53;;;;;;;14.48;3.80;;;1.60;76.30;;;;;;5033015;28;20151;-73
2021/04/07 05:03:19;;;;;;;10.95;3.55;;;1.70;76.10;;;;;;5033844;28;20139;-78
2021/04/07 05:05:44;;;;;;;10.80;3.75;;;1.60;75.80;;;;;;5001395;28;804893;-74
2021/04/07 05:08:10;;;;;;;13.70;2.80;;;1.70;75.80;;;;;;5039155;28;20037;-74
2021/04/07 05:10:36;;;;;;;11.15;2.90;;;1.60;76.00;;;;;;5055481;28;20040;-75
2021/04/07 05:13:01;;;;;;;8.52;3.15;;;1.60;75.80;;;;;;5019502;28;20472;-76
2021/04/07 05:15:27;;;;;;;11.15;3.20;;;1.70;75.80;;;;;;5016836;28;20058;-78
2021/04/07 05:17:52;;;;;;;8.10;2.53;;;1.70;75.40;;;;;;5018211;28;20045;-73
2021/04/07 05:20:18;;;;;;;9.90;2.70;;;1.80;75.30;;;;;;5008364;28;20080;-73
2021/04/07 05:22:44;;;;;;;14.70;3.75;;;1.80;75.00;;;;;;5015997;28;20049;-73
2021/04/07 05:25:10;;;;;;;10.25;3.85;;;1.80;75.10;;;;;;5009788;28;20034;-73
2021/04/07 05:27:36;;;;;;;10.68;3.03;;;1.90;75.00;;;;;;5028515;28;20107;-76
2021/04/07 05:30:02;;;;;;;11.27;3.55;;;1.90;75.00;;;;;;5029499;28;20120;-75
2021/04/07 05:32:28;;;;;;;10.05;3.50;;;1.90;75.00;;;;;;5033688;28;20086;-75
2021/04/07 05:34:53;;;;;;;8.88;2.85;;;1.90;74.20;;;;;;5028292;28;20049;-73
2021/04/07 05:37:19;;;;;;;7.00;2.70;;;1.90;73.60;;;;;;5045103;28;20033;-73
2021/04/07 05:39:45;;;;;;;11.48;2.78;;;2.00;73.10;;;;;;5010753;28;20036;-73
2021/04/07 05:42:10;;;;;;;10.02;2.70;;;2.10;72.30;;;;;;5013835;28;20103;-81
2021/04/07 05:44:36;;;;;;;7.78;2.50;;;2.10;71.80;;;;;;5027375;28;20065;-74
2021/04/07 05:47:02;;;;;;;5.55;2.35;;;2.10;70.90;;;;;;5019975;28;20038;-74
2021/04/07 05:49:28;;;;;;;9.85;2.38;;;2.20;70.50;;;;;;5039819;28;20029;-73
2021/04/07 05:51:53;;;;;;;12.07;2.22;;;2.30;70.10;;;;;;5041452;28;20040;-74
2021/04/07 05:54:20;;;;;;;9.75;2.80;;;2.30;70.00;;;;;;5025885;28;20045;-75
2021/04/07 05:56:45;;;;;;;10.88;2.67;;;2.40;69.70;;;;;;5031934;28;20392;-73
2021/04/07 05:59:11;;;;;;;6.25;2.22;;;2.40;68.20;;;;;;5037745;28;20034;-74
2021/04/07 06:01:37;;;;;;;8.50;2.60;;;2.50;67.80;;;;;;5036880;28;20029;-74
2021/04/07 06:04:02;;;;;;;10.27;3.03;;;2.60;66.80;;;;;;5012588;28;20034;-73
2021/04/07 06:06:29;;;;;;;8.73;2.03;;;2.60;65.10;;;;;;5009915;28;20053;-74
2021/04/07 06:08:55;;;;;;;12.13;2.50;;;2.70;65.20;;;;;;5005995;28;20026;-74
2021/04/07 06:11:21;;;;;;;8.10;2.63;;;2.80;65.20;;;;;;5008927;28;21175;-73
2021/04/07 06:13:47;;;;;;;9.43;2.85;;;2.80;64.70;;;;;;5007070;28;20034;-81
2021/04/07 06:16:14;;;;;;;7.80;2.30;;;2.80;64.90;;;;;;5013374;28;20041;-73
2021/04/07 06:18:40;;;;;;;7.40;2.00;;;2.80;65.10;;;;;;5022821;28;20464;-74
2021/04/07 06:21:06;;;;;;;10.27;3.05;;;2.70;66.30;;;;;;5026070;28;20041;-75
2021/04/07 06:23:32;;;;;;;6.03;1.98;;;2.60;66.60;;;;;;5027226;28;20030;-74
2021/04/07 06:25:57;;;;;;;8.93;2.45;;;2.60;66.50;;;;;;5027166;28;20107;-75
2021/04/07 06:28:23;;;;;;;6.00;2.10;;;2.50;65.80;;;;;;5025330;28;20033;-73
2021/04/07 06:30:49;;;;;;;8.65;2.00;;;2.60;65.40;;;;;;5025604;28;20071;-73
2021/04/07 06:33:23;;;;;;;8.13;1.98;;;2.60;63.70;;;;;;5025931;28;20028;-74
2021/04/07 06:35:51;;;;;;;7.82;2.50;;;2.70;64.60;;;;;;5028375;28;20049;-72
2021/04/07 06:38:18;;;;;;;8.57;2.10;;;2.70;65.00;;;;;;5033583;28;20037;-72
2021/04/07 06:40:44;;;;;;;7.10;1.95;;;2.80;61.60;;;;;;5028777;28;20045;-74
2021/04/07 06:43:11;;;;;;;10.05;2.72;;;2.90;61.40;;;;;;5027906;28;20045;-76
2021/04/07 06:45:38;;;;;;;10.43;3.22;;;2.90;63.20;;;;;;5028790;28;20025;-74
2021/04/07 06:48:06;;;;;;;6.40;2.55;;;2.90;63.50;;;;;;5026616;28;20526;-77
2021/04/07 06:50:32;;;;;;;7.85;3.10;;;3.00;64.00;;;;;;5029676;28;20043;-73
2021/04/07 06:52:59;;;;;;;16.15;3.88;;;3.00;64.00;;;;;;5032310;28;20025;-75
2021/04/07 06:55:25;;;;;;;8.57;2.78;;;3.00;64.30;;;;;;5030740;28;20461;-73
2021/04/07 06:57:52;;;;;;;7.57;2.40;;;3.00;63.30;;;;;;5026499;28;20384;-73
2021/04/07 07:00:18;;;;;;;8.30;2.30;;;3.00;63.70;;;;;;5019881;28;20473;-73
2021/04/07 07:02:44;;;;;;;9.27;2.80;;;3.10;63.40;;;;;;5026279;28;20045;-75
2021/04/07 07:05:10;;;;;;;7.68;2.60;;;3.10;62.30;;;;;;5016382;28;20050;-77
2021/04/07 07:07:36;;;;;;;10.02;2.40;;;3.10;62.50;;;;;;5022267;28;20045;-79
2021/04/07 07:10:03;;;;;;;8.35;2.50;;;3.20;62.30;;;;;;5021906;28;20436;-75
2021/04/07 07:12:31;;;;;;;7.75;2.60;;;3.20;63.00;;;;;;5021286;28;20041;-76
2021/04/07 07:15:03;;;;;;;7.22;2.38;;;3.30;62.30;;;;;;5021479;28;20045;-79
2021/04/07 07:17:30;;;;;;;11.82;2.58;;;3.40;62.80;;;;;;5031622;28;20475;-76
2021/04/07 07:19:56;;;;;;;8.70;2.03;;;3.40;62.40;;;;;;5016633;28;20121;-73
2021/04/07 07:22:24;;;;;;;9.10;2.50;;;3.10;64.80;;;;;;4997489;28;20548;-73
2021/04/07 07:24:52;;;;;;;10.32;2.63;;;2.90;67.40;;;;;;4999994;28;20451;-75
2021/04/07 07:27:19;;;;;;;9.57;2.45;;;2.90;67.80;;;;;;5007215;28;20042;-76
2021/04/07 07:29:54;;;;;;;10.18;2.63;;;2.80;69.70;;;;;;5017691;28;20072;-76
2021/04/07 07:32:20;;;;;;;10.63;2.65;;;2.70;71.20;;;;;;5036376;28;20049;-73
2021/04/07 07:34:46;;;;;;;8.02;2.50;;;2.80;70.70;;;;;;5025086;28;20401;-75
2021/04/07 07:37:23;;;;;;;11.70;2.45;;;2.90;68.80;;;;;;5040912;28;20111;-77
2021/04/07 07:39:49;;;;;;;8.52;2.42;;;3.10;68.30;;;;;;5021090;28;20090;-77
2021/04/07 07:42:16;;;;;;;8.68;2.67;;;3.30;67.00;;;;;;5014574;28;20030;-75
2021/04/07 07:44:42;;;;;;;11.30;3.03;;;3.50;64.90;;;;;;5023443;28;20085;-74
2021/04/07 07:49:38;;;;;;;10.85;2.50;;;4.00;61.80;;;;;;5022351;28;20029;-74
2021/04/07 07:52:04;;;;;;;10.55;2.50;;;4.40;63.30;;;;;;5011503;28;20442;-81
2021/04/07 07:54:30;;;;;;;14.85;3.70;;;4.60;61.80;;;;;;5025551;28;20026;-73
2021/04/07 07:56:56;;;;;;;10.02;3.13;;;4.80;61.40;;;;;;5023122;28;20033;-74
2021/04/07 07:59:33;;;;;;;10.10;2.60;;;4.90;60.30;;;;;;5015778;28;20088;-73
2021/04/07 08:01:59;;;;;;;9.07;2.42;;;4.80;60.10;;;;;;5030144;28;20074;-75
2021/04/07 08:04:26;;;;;;;13.75;2.50;;;4.70;61.20;;;;;;5024398;28;20433;-73
2021/04/07 08:06:52;;;;;;;9.57;2.65;;;4.70;61.10;;;;;;5022761;28;20192;-74
2021/04/07 08:09:17;;;;;;;10.35;2.10;;;4.60;61.80;;;;;;5019708;28;20112;-75
2021/04/07 08:11:47;;;;;;;8.93;2.75;;;4.70;60.50;;;;;;5029907;28;20030;-73
2021/04/07 08:14:15;;;;;;;9.25;3.08;;;4.80;60.10;;;;;;5029034;28;20124;-73
2021/04/07 08:16:42;;;;;;;11.15;2.65;;;4.90;59.50;;;;;;5028814;28;20577;-74
2021/04/07 08:19:10;;;;;;;14.85;2.67;;;4.90;58.50;;;;;;5031847;28;20388;-74
2021/04/07 08:21:38;;;;;;;9.93;2.65;;;5.00;59.20;;;;;;5029708;28;20388;-75
2021/04/07 08:24:08;;;;;;;9.73;2.22;;;5.00;59.20;;;;;;5031170;28;20053;-69
2021/04/07 08:27:53;;;;;;;9.32;2.90;;;5.20;57.90;;;;;;5087824;27;20374;-69
2021/04/07 08:30:20;;;;;;;11.63;3.00;;;5.40;58.10;;;;;;5039440;28;20040;-68
2021/04/07 08:32:49;;;;;;;15.10;3.55;;;5.40;59.00;;;;;;5077225;28;20122;-67
2021/04/07 08:35:15;;;;;;;10.55;2.75;;;5.40;58.30;;;;;;5082245;28;20446;-67
2021/04/07 08:37:40;;;;;;;13.65;3.38;;;5.30;57.40;;;;;;5086687;28;20130;-68
2021/04/07 08:40:11;;;;;;;8.27;2.83;;;5.50;59.40;;;;;;5079754;28;20127;-68
2021/04/07 08:42:37;;;;;;;6.57;2.85;;;5.60;57.60;;;;;;5072297;28;20571;-70
2021/04/07 08:45:13;;;;;;;7.45;2.78;;;5.50;57.40;;;;;;5083600;28;20056;-70
2021/04/07 08:47:54;;;;;;;8.25;2.70;;;5.50;57.40;;;;;;5084231;28;20040;-68
2021/04/07 08:50:29;;;;;;;9.80;3.20;;;5.60;58.30;;;;;;5083314;28;20031;-66
2021/04/07 08:52:55;;;;;;;;;;;5.80;59.20;;;;;;5083205;28;20119;-67
2021/04/07 08:55:28;;;;;;;8.75;2.97;;;5.60;57.90;;;;;;5083563;28;20329;-68
2021/04/07 08:58:00;;;;;;;8.27;3.38;;;5.50;59.10;;;;;;5084699;28;20037;-66
2021/04/07 09:00:28;;;;;;;9.50;2.88;;;5.40;58.40;;;;;;5086287;28;20051;-66
2021/04/07 09:02:56;;;;;;;10.27;3.03;;;5.50;59.30;;;;;;5084386;28;20047;-67
2021/04/07 09:05:33;;;;;;;8.95;3.05;;;5.50;59.20;;;;;;5085915;28;20506;-68
2021/04/07 09:08:00;;;;;;;11.40;3.50;;;5.60;59.00;;;;;;5087145;28;20483;-69
2021/04/07 09:10:26;;;;;;;13.48;3.63;;;5.60;60.50;;;;;;5085063;28;20074;-68
2021/04/07 09:12:53;;;;;;;13.27;3.38;;;5.60;60.30;;;;;;5099755;28;20085;-69
2021/04/07 09:15:20;;;;;;;11.35;3.20;;;5.70;60.30;;;;;;5083264;28;20060;-69
2021/04/07 09:17:51;;;;;;;10.73;2.97;;;5.70;59.60;;;;;;5082728;28;20040;-69
2021/04/07 09:20:40;;;;;;;10.07;3.45;;;5.80;60.50;;;;;;5081205;28;20024;-69
2021/04/07 09:23:20;;;;;;;13.18;3.33;;;5.90;60.30;;;;;;5058937;28;20039;-68
2021/04/07 09:25:55;;;;;;;18.73;3.88;;;6.00;59.90;;;;;;5075640;28;20059;-69
2021/04/07 09:28:32;;;;;;;13.32;3.40;;;6.10;59.70;;;;;;5055321;28;20103;-70
2021/04/07 09:31:05;;;;;;;12.80;3.47;;;6.00;60.10;;;;;;5069605;28;20040;-68
2021/04/07 09:33:31;;;;;;;11.52;3.10;;;6.10;60.20;;;;;;5060130;28;20028;-69
2021/04/07 09:35:59;;;;;;;15.13;4.07;;;6.10;60.10;;;;;;5068521;28;20035;-69
2021/04/07 09:38:27;;;;;;;13.32;3.38;;;6.30;59.80;;;;;;5044328;28;20361;-68
2021/04/07 09:41:08;;;;;;;12.52;3.50;;;6.40;60.50;;;;;;5078188;28;20035;-69
2021/04/07 09:43:34;;;;;;;14.10;4.30;;;6.60;60.80;;;;;;5068423;28;20048;-68
2021/04/07 09:46:00;;;;;;;13.25;3.65;;;6.80;59.70;;;;;;5059783;28;20048;-68
2021/04/07 09:48:42;;;;;;;14.77;3.50;;;6.50;59.00;;;;;;5067290;28;20044;-69
2021/04/07 09:51:26;;;;;;;13.50;3.70;;;6.60;59.60;;;;;;5070214;28;20039;-69
2021/04/07 09:54:06;;;;;;;12.63;4.20;;;6.70;60.20;;;;;;5068254;28;20052;-68
2021/04/07 09:56:32;;;;;;;13.10;3.75;;;6.70;60.50;;;;;;5070655;28;20024;-69
2021/04/07 09:58:58;;;;;;;15.15;4.88;;;6.80;59.80;;;;;;5068098;28;20472;-68
2021/04/07 10:01:25;;;;;;;16.45;5.07;;;6.60;60.80;;;;;;5069619;28;20040;-69
2021/04/07 10:03:54;;;;;;;13.55;3.28;;;6.90;61.00;;;;;;5060342;28;20033;-69
2021/04/07 10:06:21;;;;;;;13.48;4.07;;;7.10;60.30;;;;;;5052906;28;20068;-68
2021/04/07 10:09:10;;;;;;;16.80;4.80;;;6.80;60.10;;;;;;5071172;28;20037;-69
2021/04/07 10:11:41;;;;;;;14.48;3.90;;;6.70;60.40;;;;;;5051218;28;20036;-69
2021/04/07 10:14:08;;;;;;;15.52;3.78;;;6.80;60.60;;;;;;5053668;28;20112;-71
2021/04/07 10:16:36;;;;;;;17.80;4.53;;;6.70;60.40;;;;;;5048324;28;20078;-71
2021/04/07 10:19:10;;;;;;;13.30;4.45;;;6.80;59.60;;;;;;5046308;28;20538;-69
2021/04/07 10:21:37;;;;;;;15.80;4.75;;;6.70;59.30;;;;;;5046712;28;20026;-69
2021/04/07 10:24:05;;;;;;;20.27;4.30;;;6.70;60.10;;;;;;5048270;28;20041;-70
2021/04/07 10:26:32;;;;;;;14.68;4.22;;;6.80;60.70;;;;;;5042746;28;20055;-69
2021/04/07 10:29:00;;;;;;;11.27;3.60;;;6.70;59.30;;;;;;5056175;28;20056;-72
2021/04/07 10:31:27;;;;;;;12.30;3.22;;;6.50;59.40;;;;;;5046990;28;20120;-69
2021/04/07 10:34:08;;;;;;;14.27;3.72;;;6.30;60.00;;;;;;5051581;28;20513;-72
2021/04/07 10:36:36;;;;;;;7.93;2.80;;;6.30;61.30;;;;;;5046484;28;20033;-70
2021/04/07 10:39:16;;;;;;;15.25;3.67;;;6.30;60.60;;;;;;5039038;28;20025;-70
2021/04/07 10:41:47;;;;;;;15.25;3.42;;;6.40;59.80;;;;;;5048152;28;20037;-69
2021/04/07 10:44:32;;;;;;;10.32;3.28;;;6.40;59.20;;;;;;5047744;28;20024;-71
2021/04/07 10:46:58;;;;;;;11.10;3.10;;;6.50;60.00;;;;;;5056741;28;20456;-68
2021/04/07 10:49:25;;;;;;;12.43;4.68;;;6.90;59.40;;;;;;5052852;28;20043;-70
2021/04/07 10:52:05;;;;;;;18.42;4.10;;;6.60;59.60;;;;;;5055808;28;20031;-69
2021/04/07 10:54:30;;;;;;;18.52;7.18;;;6.60;59.20;;;;;;5064125;28;20033;-69
2021/04/07 10:57:04;;;;;;;15.40;4.80;;;6.60;58.80;;;;;;5058326;28;20041;-70
2021/04/07 10:59:31;;;;;;;16.73;4.35;;;6.60;59.00;;;;;;5057948;28;20047;-69
2021/04/07 11:01:58;;;;;;;12.82;4.20;;;6.70;59.20;;;;;;5067921;28;20057;-69
2021/04/07 11:04:26;;;;;;;12.55;4.10;;;6.80;59.40;;;;;;5054447;28;20032;-69
2021/04/07 11:06:58;;;;;;;14.43;3.70;;;6.90;58.90;;;;;;5061069;28;20040;-71
2021/04/07 11:09:27;;;;;;;10.50;3.22;;;6.90;58.80;;;;;;5062249;28;20107;-69
2021/04/07 11:11:54;;;;;;;13.07;2.80;;;6.60;58.40;;;;;;5064582;28;20106;-69
2021/04/07 11:14:21;;;;;;;10.82;3.63;;;6.90;58.70;;;;;;5046351;28;20504;-73
2021/04/07 11:17:04;;;;;;;11.13;3.65;;;6.90;57.80;;;;;;5050019;28;20036;-69
2021/04/07 11:19:36;;;;;;;12.57;3.95;;;6.90;58.30;;;;;;5064648;28;20028;-69
2021/04/07 11:22:03;;;;;;;15.45;3.35;;;6.80;58.20;;;;;;5056236;28;20029;-71
2021/04/07 11:24:29;;;;;;;16.90;3.53;;;6.70;58.20;;;;;;5039816;28;20033;-71
2021/04/07 11:26:55;;;;;;;11.05;3.22;;;6.70;58.20;;;;;;5049302;28;20523;-69
2021/04/07 11:29:21;;;;;;;12.70;3.67;;;6.70;58.50;;;;;;5046043;28;20049;-70
2021/04/07 11:31:51;;;;;;;13.38;4.15;;;6.80;57.10;;;;;;5043730;28;20079;-69
2021/04/07 11:34:20;;;;;;;11.57;3.00;;;6.60;56.50;;;;;;5043413;28;20029;-69
2021/04/07 11:37:09;;;;;;;9.93;3.38;;;6.70;55.90;;;;;;5045714;28;20068;-69
2021/04/07 11:42:23;;;;;;;10.93;2.92;;;6.60;55.30;;;;;;5051662;28;20167;-69
2021/04/07 11:44:49;;;;;;;10.20;3.42;;;6.80;54.60;;;;;;5068943;28;20037;-69
2021/04/07 11:47:14;;;;;;;9.63;2.53;;;7.40;52.60;;;;;;5057360;28;20051;-71
2021/04/07 11:49:40;;;;;;;8.50;2.60;;;7.80;50.10;;;;;;5066067;28;20578;-70
2021/04/07 11:52:07;;;;;;;10.38;3.28;;;7.60;52.00;;;;;;5043969;28;20048;-70
2021/04/07 11:54:33;;;;;;;10.48;2.75;;;7.30;52.50;;;;;;5049542;28;20028;-69
2021/04/07 11:56:59;;;;;;;9.40;2.90;;;7.50;52.50;;;;;;5065589;28;20561;-70
2021/04/07 11:59:25;;;;;;;9.65;2.85;;;7.90;51.60;;;;;;5060591;28;20028;-69
2021/04/07 12:01:54;;;;;;;11.70;3.00;;;8.40;49.90;;;;;;5065894;28;20029;-69
2021/04/07 12:04:23;;;;;;;8.43;2.47;;;8.50;51.30;;;;;;5056992;28;20608;-69
2021/04/07 12:06:48;;;;;;;12.27;3.25;;;8.50;49.30;;;;;;5065412;28;20044;-69
2021/04/07 12:09:14;;;;;;;10.80;3.17;;;8.30;50.70;;;;;;5061771;28;20390;-69
2021/04/07 12:11:40;;;;;;;13.57;5.93;;;8.00;50.90;;;;;;5068495;28;20399;-69
2021/04/07 12:14:08;;;;;;;6.20;2.60;;;7.80;48.20;;;;;;5059857;28;20041;-69
2021/04/07 12:16:33;;;;;;;11.13;2.80;;;7.50;47.60;;;;;;5062653;28;20047;-69
2021/04/07 12:18:59;;;;;;;8.27;2.60;;;7.80;47.80;;;;;;5062004;28;20029;-72
2021/04/07 12:21:25;;;;;;;9.60;2.90;;;8.00;46.00;;;;;;5059920;28;20033;-69
2021/04/07 12:23:51;;;;;;;8.93;2.53;;;8.00;47.10;;;;;;5059996;28;20068;-68
2021/04/07 12:26:17;;;;;;;11.32;3.15;;;7.50;47.30;;;;;;5066076;28;20088;-68
2021/04/07 12:28:46;;;;;;;9.18;2.88;;;7.70;47.90;;;;;;5062667;28;20101;-69
2021/04/07 12:31:14;;;;;;;9.77;2.90;;;7.50;48.60;;;;;;5057430;28;20037;-69
2021/04/07 12:33:40;;;;;;;12.38;3.85;;;7.90;49.20;;;;;;5064467;28;20033;-69
2021/04/07 12:36:09;;;;;;;9.80;2.70;;;7.40;49.90;;;;;;5061195;28;20497;-69
2021/04/07 12:38:36;;;;;;;11.43;3.33;;;7.10;49.40;;;;;;5054266;28;20040;-69
2021/04/07 12:41:08;;;;;;;9.52;2.95;;;7.30;49.10;;;;;;5059846;28;20033;-71
2021/04/07 12:43:33;;;;;;;9.70;3.20;;;7.70;48.70;;;;;;5063649;28;20062;-70
2021/04/07 12:46:00;;;;;;;12.75;3.10;;;7.40;49.00;;;;;;5064066;28;20471;-70
2021/04/07 12:48:25;;;;;;;10.35;3.92;;;7.20;48.60;;;;;;5059058;28;20041;-70
2021/04/07 12:50:51;;;;;;;15.70;3.33;;;7.00;48.90;;;;;;5067075;28;20025;-68
2021/04/07 12:53:17;;;;;;;10.93;2.67;;;7.20;50.00;;;;;;5065280;28;20451;-68
2021/04/07 12:55:42;;;;;;;10.73;2.90;;;7.40;48.80;;;;;;5049515;28;20513;-68
2021/04/07 12:58:08;;;;;;;7.63;2.55;;;7.50;48.60;;;;;;5046184;28;20034;-68